Time;durP1;ratioP1;P1;durP2;ratioP2;P2;SDS_P1;SDS_P2;PMS_P1;PMS_P2;Temp;Humidity;BMP_temperature;BMP_pressure;BME280_temperature;BME280_humidity;BME280_pressure;Samples;Min_cycle;Max_cycle;Signal;HPM_P1;HPM_P2
2023/08/24 00:00:46;;;;;;;12.52;2.63;;;;;;;;;;6220536;23;20099;-45
2023/08/24 00:03:14;;;;;;;9.95;3.05;;;;;;;;;;6202976;23;20020;-44
2023/08/24 00:05:42;;;;;;;9.50;3.00;;;;;;;;;;6201580;23;20099;-43
2023/08/24 00:08:11;;;;;;;11.88;2.80;;;;;;;;;;6213252;23;20862;-43
2023/08/24 00:10:39;;;;;;;9.50;3.43;;;;;;;;;;6212925;23;20019;-42
2023/08/24 00:13:07;;;;;;;10.35;3.30;;;;;;;;;;6213029;23;20027;-42
2023/08/24 00:15:35;;;;;;;10.40;3.08;;;;;;;;;;6214459;23;20016;-41
2023/08/24 00:18:05;;;;;;;10.07;2.95;;;;;;;;;;6220236;22;20040;-42
2023/08/24 00:20:33;;;;;;;10.35;2.88;;;;;;;;;;6210004;23;20534;-43
2023/08/24 00:23:01;;;;;;;7.53;2.63;;;;;;;;;;6216391;23;20016;-43
2023/08/24 00:25:30;;;;;;;10.73;3.40;;;;;;;;;;6208721;23;20020;-42
2023/08/24 00:27:58;;;;;;;8.07;2.90;;;;;;;;;;6222202;23;20020;-44
2023/08/24 00:30:26;;;;;;;8.82;3.10;;;;;;;;;;6207955;23;20504;-43
2023/08/24 00:32:54;;;;;;;11.40;3.00;;;;;;;;;;6218042;23;20316;-44
2023/08/24 00:35:22;;;;;;;7.90;2.60;;;;;;;;;;6217461;23;20012;-43
2023/08/24 00:37:50;;;;;;;9.93;3.25;;;;;;;;;;6199028;23;20024;-43
2023/08/24 00:40:18;;;;;;;14.10;3.03;;;;;;;;;;6217681;23;20016;-44
2023/08/24 00:42:47;;;;;;;11.05;2.60;;;;;;;;;;6211255;23;20468;-44
2023/08/24 00:45:15;;;;;;;8.70;3.35;;;;;;;;;;6214082;23;20082;-43
2023/08/24 00:47:44;;;;;;;12.70;3.10;;;;;;;;;;6206596;23;20016;-42
2023/08/24 00:50:12;;;;;;;10.50;3.30;;;;;;;;;;6217948;22;20123;-42
2023/08/24 00:52:41;;;;;;;13.27;3.25;;;;;;;;;;6204748;23;20439;-45
2023/08/24 00:55:09;;;;;;;7.50;2.92;;;;;;;;;;6215813;23;20356;-44
2023/08/24 00:57:37;;;;;;;11.15;4.07;;;;;;;;;;6211021;23;20027;-43
2023/08/24 01:00:09;;;;;;;9.63;3.23;;;;;;;;;;6212260;23;20031;-42
2023/08/24 01:02:37;;;;;;;8.55;3.40;;;;;;;;;;6217829;23;20012;-42
2023/08/24 01:05:06;;;;;;;9.50;3.10;;;;;;;;;;6208938;23;20478;-42
2023/08/24 01:07:36;;;;;;;9.38;2.78;;;;;;;;;;6212564;23;20432;-43
2023/08/24 01:10:04;;;;;;;12.18;3.10;;;;;;;;;;6221857;23;20012;-43
2023/08/24 01:12:37;;;;;;;9.20;2.80;;;;;;;;;;6212686;22;20016;-44
2023/08/24 01:15:10;;;;;;;10.00;2.55;;;;;;;;;;6216642;23;20107;-42
2023/08/24 01:17:39;;;;;;;8.63;2.70;;;;;;;;;;6206829;23;20044;-42
2023/08/24 01:20:09;;;;;;;7.97;3.08;;;;;;;;;;6219670;23;20016;-43
2023/08/24 01:22:41;;;;;;;8.93;2.95;;;;;;;;;;6211057;23;20028;-42
2023/08/24 01:25:14;;;;;;;8.30;3.10;;;;;;;;;;6219397;23;20020;-42
2023/08/24 01:27:44;;;;;;;11.43;3.05;;;;;;;;;;6221711;23;20023;-42
2023/08/24 01:30:13;;;;;;;12.82;2.90;;;;;;;;;;6210996;23;20086;-42
2023/08/24 01:32:41;;;;;;;9.02;2.92;;;;;;;;;;6211673;23;20486;-42
2023/08/24 01:35:09;;;;;;;9.00;2.95;;;;;;;;;;6218544;23;20016;-42
2023/08/24 01:37:38;;;;;;;12.83;3.30;;;;;;;;;;6213735;23;20016;-43
2023/08/24 01:40:09;;;;;;;7.10;2.67;;;;;;;;;;6220664;22;20016;-45
2023/08/24 01:42:41;;;;;;;9.25;3.25;;;;;;;;;;6197441;23;20035;-44
2023/08/24 01:45:11;;;;;;;9.30;3.13;;;;;;;;;;6211434;23;20016;-43
2023/08/24 01:47:39;;;;;;;8.93;2.80;;;;;;;;;;6191890;23;20024;-43
2023/08/24 01:50:07;;;;;;;9.67;2.90;;;;;;;;;;6223652;23;20099;-42
2023/08/24 01:52:36;;;;;;;8.20;3.20;;;;;;;;;;6220019;23;20054;-43
2023/08/24 01:55:04;;;;;;;9.63;2.63;;;;;;;;;;6227612;23;20019;-45
2023/08/24 01:57:31;;;;;;;8.23;3.03;;;;;;;;;;6215764;23;20171;-45
2023/08/24 01:59:59;;;;;;;8.40;3.15;;;;;;;;;;6218342;23;20058;-45
2023/08/24 02:02:29;;;;;;;12.20;3.30;;;;;;;;;;6224747;23;20024;-46
2023/08/24 02:04:57;;;;;;;11.73;2.75;;;;;;;;;;6221326;23;20019;-46
2023/08/24 02:07:25;;;;;;;9.30;2.83;;;;;;;;;;6218402;23;20443;-42
2023/08/24 02:09:53;;;;;;;9.23;3.45;;;;;;;;;;6222597;23;20307;-44
2023/08/24 02:12:20;;;;;;;8.70;3.47;;;;;;;;;;6215048;23;20070;-44
2023/08/24 02:14:49;;;;;;;9.40;3.40;;;;;;;;;;6220629;23;20058;-45
2023/08/24 02:17:16;;;;;;;10.18;3.08;;;;;;;;;;6221500;23;20056;-43
2023/08/24 02:19:45;;;;;;;10.45;3.15;;;;;;;;;;6218603;23;20043;-43
2023/08/24 02:22:13;;;;;;;8.90;2.92;;;;;;;;;;6226948;23;20012;-43
2023/08/24 02:24:41;;;;;;;10.88;3.00;;;;;;;;;;6212434;23;20008;-44
2023/08/24 02:27:10;;;;;;;7.60;3.20;;;;;;;;;;6208173;23;20023;-42
2023/08/24 02:29:38;;;;;;;6.72;2.63;;;;;;;;;;6219764;23;20512;-44
2023/08/24 02:32:06;;;;;;;8.88;3.33;;;;;;;;;;6218708;23;20445;-42
2023/08/24 02:34:34;;;;;;;7.18;2.95;;;;;;;;;;6193301;23;20601;-43
2023/08/24 02:37:03;;;;;;;8.73;3.00;;;;;;;;;;6223888;23;20016;-42
2023/08/24 02:39:31;;;;;;;11.30;3.30;;;;;;;;;;6221357;23;20016;-42
2023/08/24 02:41:58;;;;;;;7.97;2.75;;;;;;;;;;6217822;23;20359;-43
2023/08/24 02:44:27;;;;;;;7.80;2.58;;;;;;;;;;6198287;23;20023;-44
2023/08/24 02:46:55;;;;;;;9.80;3.10;;;;;;;;;;6221658;22;20030;-42
2023/08/24 02:49:23;;;;;;;9.27;3.22;;;;;;;;;;6214687;23;20073;-44
2023/08/24 02:51:50;;;;;;;8.70;3.10;;;;;;;;;;6217968;23;20012;-42
2023/08/24 02:54:20;;;;;;;7.15;2.78;;;;;;;;;;6213864;23;20355;-42
2023/08/24 02:56:47;;;;;;;8.85;3.28;;;;;;;;;;6218836;22;20043;-44
2023/08/24 02:59:15;;;;;;;11.20;3.30;;;;;;;;;;6205471;23;20012;-43
2023/08/24 03:01:43;;;;;;;8.30;2.65;;;;;;;;;;6216934;23;20082;-43
2023/08/24 03:04:11;;;;;;;7.13;3.03;;;;;;;;;;6220985;23;20016;-43
2023/08/24 03:06:38;;;;;;;7.15;3.20;;;;;;;;;;6193475;23;20043;-42
2023/08/24 03:09:06;;;;;;;8.07;3.30;;;;;;;;;;6226387;23;20012;-42
2023/08/24 03:11:35;;;;;;;10.40;3.17;;;;;;;;;;6213907;23;20447;-42
2023/08/24 03:14:02;;;;;;;8.50;3.40;;;;;;;;;;6224941;23;20016;-42
2023/08/24 03:16:30;;;;;;;8.33;3.13;;;;;;;;;;6213756;23;20431;-44
2023/08/24 03:18:58;;;;;;;8.65;3.65;;;;;;;;;;6214291;23;20724;-43
2023/08/24 03:21:26;;;;;;;9.02;3.08;;;;;;;;;;6214917;23;20012;-42
2023/08/24 03:23:54;;;;;;;10.35;3.00;;;;;;;;;;6214911;23;20417;-42
2023/08/24 03:26:23;;;;;;;8.23;3.00;;;;;;;;;;6217900;22;20280;-42
2023/08/24 03:28:52;;;;;;;8.43;2.73;;;;;;;;;;6215138;23;20247;-42
2023/08/24 03:31:19;;;;;;;6.95;2.80;;;;;;;;;;6216276;23;20012;-42
2023/08/24 03:33:47;;;;;;;8.88;2.40;;;;;;;;;;6218499;23;20024;-44
2023/08/24 03:36:15;;;;;;;7.40;2.58;;;;;;;;;;6220633;23;20027;-43
2023/08/24 03:38:42;;;;;;;7.05;2.72;;;;;;;;;;6216984;23;20016;-42
2023/08/24 03:41:10;;;;;;;6.50;2.67;;;;;;;;;;6218529;23;20447;-43
2023/08/24 03:43:37;;;;;;;8.25;2.70;;;;;;;;;;6220767;23;20020;-44
2023/08/24 03:46:06;;;;;;;9.82;3.30;;;;;;;;;;6204692;23;20028;-43
2023/08/24 03:48:34;;;;;;;6.38;2.58;;;;;;;;;;6222488;23;20016;-43
2023/08/24 03:51:02;;;;;;;7.15;2.78;;;;;;;;;;6212458;23;20656;-42
2023/08/24 03:53:29;;;;;;;7.10;2.87;;;;;;;;;;6221257;23;20012;-43
2023/08/24 03:55:57;;;;;;;10.60;3.47;;;;;;;;;;6219149;23;20016;-43
2023/08/24 03:58:25;;;;;;;9.45;3.20;;;;;;;;;;6222161;23;20020;-42
2023/08/24 04:00:53;;;;;;;8.05;3.08;;;;;;;;;;6214417;23;20016;-42
2023/08/24 04:03:23;;;;;;;10.07;3.10;;;;;;;;;;6227067;23;20070;-42
2023/08/24 04:05:51;;;;;;;10.17;3.53;;;;;;;;;;6219136;23;20012;-42
2023/08/24 04:08:18;;;;;;;8.38;3.50;;;;;;;;;;6215026;23;20020;-41
2023/08/24 04:10:46;;;;;;;11.85;3.50;;;;;;;;;;6213110;23;20027;-46
2023/08/24 04:13:14;;;;;;;10.68;3.78;;;;;;;;;;6219681;23;20019;-44
2023/08/24 04:15:41;;;;;;;8.73;3.20;;;;;;;;;;6220798;23;20070;-45
2023/08/24 04:18:09;;;;;;;8.73;2.97;;;;;;;;;;6222217;23;20020;-47
2023/08/24 04:20:39;;;;;;;11.40;3.20;;;;;;;;;;6224484;23;20024;-47
2023/08/24 04:23:07;;;;;;;9.95;3.45;;;;;;;;;;6217085;23;20206;-43
2023/08/24 04:25:35;;;;;;;10.18;3.47;;;;;;;;;;6222297;23;20279;-44
2023/08/24 04:28:02;;;;;;;10.15;3.38;;;;;;;;;;6216798;23;20031;-44
2023/08/24 04:30:30;;;;;;;13.07;3.50;;;;;;;;;;6224347;23;20020;-43
2023/08/24 04:32:59;;;;;;;9.95;3.33;;;;;;;;;;6213919;23;20382;-43
2023/08/24 04:35:27;;;;;;;12.55;4.13;;;;;;;;;;6218178;23;20528;-43
2023/08/24 04:37:56;;;;;;;12.02;4.32;;;;;;;;;;6226861;23;20024;-45
2023/08/24 04:40:24;;;;;;;8.38;3.13;;;;;;;;;;6215105;23;20016;-43
2023/08/24 04:42:52;;;;;;;8.73;3.33;;;;;;;;;;6224968;23;20024;-45
2023/08/24 04:45:19;;;;;;;8.82;2.72;;;;;;;;;;6208162;23;20016;-43
2023/08/24 04:47:47;;;;;;;8.43;3.60;;;;;;;;;;6220410;23;20043;-42
2023/08/24 04:50:17;;;;;;;9.65;3.67;;;;;;;;;;6222403;23;20035;-43
2023/08/24 04:52:44;;;;;;;8.52;3.60;;;;;;;;;;6209103;23;20016;-43
2023/08/24 04:55:14;;;;;;;10.10;3.50;;;;;;;;;;6223625;23;20035;-44
2023/08/24 04:57:42;;;;;;;7.95;3.10;;;;;;;;;;6205553;23;20043;-45
2023/08/24 05:00:13;;;;;;;9.55;3.38;;;;;;;;;;6221256;23;20020;-43
2023/08/24 05:02:43;;;;;;;10.73;3.30;;;;;;;;;;6214858;23;20012;-47
2023/08/24 05:05:11;;;;;;;10.50;3.00;;;;;;;;;;6217695;23;20012;-48
2023/08/24 05:07:40;;;;;;;7.77;3.13;;;;;;;;;;6217856;23;20078;-45
2023/08/24 05:10:08;;;;;;;7.53;3.40;;;;;;;;;;6209159;23;20020;-43
2023/08/24 05:12:37;;;;;;;8.45;3.20;;;;;;;;;;6217605;23;20019;-44
2023/08/24 05:15:06;;;;;;;10.10;3.85;;;;;;;;;;6206814;23;20012;-43
2023/08/24 05:17:34;;;;;;;11.77;3.80;;;;;;;;;;6216555;23;20423;-46
2023/08/24 05:20:02;;;;;;;15.80;3.97;;;;;;;;;;6202089;23;20325;-43
2023/08/24 05:22:29;;;;;;;13.40;4.10;;;;;;;;;;6223502;23;20016;-44
2023/08/24 05:24:57;;;;;;;8.93;4.15;;;;;;;;;;6205384;23;20309;-43
2023/08/24 05:27:25;;;;;;;13.32;4.13;;;;;;;;;;6218915;23;20020;-45
2023/08/24 05:29:54;;;;;;;10.95;4.25;;;;;;;;;;6211170;23;20012;-43
2023/08/24 05:32:22;;;;;;;8.20;4.23;;;;;;;;;;6219185;23;20023;-43
2023/08/24 05:34:50;;;;;;;10.38;4.13;;;;;;;;;;6212894;23;20085;-43
2023/08/24 05:37:22;;;;;;;9.95;4.20;;;;;;;;;;6211699;22;20758;-43
2023/08/24 05:39:50;;;;;;;16.92;4.15;;;;;;;;;;6209997;23;20020;-44
2023/08/24 05:42:18;;;;;;;12.05;4.15;;;;;;;;;;6212815;23;20099;-45
2023/08/24 05:44:45;;;;;;;8.80;3.67;;;;;;;;;;6217883;23;20020;-46
2023/08/24 05:47:15;;;;;;;9.30;3.92;;;;;;;;;;6203544;23;20012;-44
2023/08/24 05:49:59;;;;;;;13.10;4.60;;;;;;;;;;6215091;23;20012;-43
2023/08/24 05:52:27;;;;;;;12.15;3.78;;;;;;;;;;6199277;23;20459;-45
2023/08/24 05:54:55;;;;;;;11.30;4.20;;;;;;;;;;6222396;23;20046;-45
2023/08/24 05:57:23;;;;;;;13.60;4.20;;;;;;;;;;6205507;23;20012;-44
2023/08/24 05:59:50;;;;;;;13.68;4.60;;;;;;;;;;6215157;23;20012;-45
2023/08/24 06:02:19;;;;;;;11.55;4.80;;;;;;;;;;6209003;23;20039;-45
2023/08/24 06:04:50;;;;;;;12.23;4.50;;;;;;;;;;6215389;23;20016;-45
2023/08/24 06:07:18;;;;;;;9.75;4.00;;;;;;;;;;6212349;23;20016;-45
2023/08/24 06:09:46;;;;;;;13.07;4.80;;;;;;;;;;6220593;23;20019;-45
2023/08/24 06:12:13;;;;;;;14.43;4.63;;;;;;;;;;6208511;23;20012;-46
2023/08/24 06:14:41;;;;;;;11.52;4.35;;;;;;;;;;6219237;23;20455;-46
2023/08/24 06:17:15;;;;;;;12.43;4.47;;;;;;;;;;6205851;23;20027;-47
2023/08/24 06:19:44;;;;;;;13.90;4.55;;;;;;;;;;6209515;23;20035;-42
2023/08/24 06:22:13;;;;;;;10.93;3.90;;;;;;;;;;6216839;23;20054;-44
2023/08/24 06:24:41;;;;;;;13.82;4.20;;;;;;;;;;6208690;23;20016;-43
2023/08/24 06:27:09;;;;;;;16.17;4.45;;;;;;;;;;6222822;23;20478;-45
2023/08/24 06:29:36;;;;;;;11.45;4.13;;;;;;;;;;6207431;23;20605;-45
2023/08/24 06:32:04;;;;;;;10.57;4.70;;;;;;;;;;6210175;23;20808;-44
2023/08/24 06:34:32;;;;;;;14.70;4.67;;;;;;;;;;6219695;23;20061;-45
2023/08/24 06:37:01;;;;;;;10.20;3.90;;;;;;;;;;6205398;22;20016;-46
2023/08/24 06:39:29;;;;;;;11.70;4.38;;;;;;;;;;6218770;23;20078;-43
2023/08/24 06:41:56;;;;;;;8.88;3.95;;;;;;;;;;6218372;23;20619;-43
2023/08/24 06:44:24;;;;;;;17.30;4.70;;;;;;;;;;6207931;23;20023;-42
2023/08/24 06:46:51;;;;;;;13.13;4.50;;;;;;;;;;6220593;23;20474;-43
2023/08/24 06:49:21;;;;;;;10.57;3.95;;;;;;;;;;6216552;23;20024;-42
2023/08/24 06:51:49;;;;;;;9.75;4.25;;;;;;;;;;6215820;23;20024;-43
2023/08/24 06:54:18;;;;;;;11.15;4.05;;;;;;;;;;6209953;23;20233;-42
2023/08/24 06:56:45;;;;;;;14.80;4.50;;;;;;;;;;6217467;23;20046;-43
2023/08/24 06:59:13;;;;;;;11.70;4.10;;;;;;;;;;6206440;23;20016;-44
2023/08/24 07:01:41;;;;;;;11.70;4.35;;;;;;;;;;6223072;23;20023;-45
2023/08/24 07:04:09;;;;;;;11.02;4.43;;;;;;;;;;6201713;23;20017;-43
2023/08/24 07:06:36;;;;;;;10.82;4.47;;;;;;;;;;6214694;23;20012;-42
2023/08/24 07:09:07;;;;;;;10.57;4.10;;;;;;;;;;6211957;23;20024;-42
2023/08/24 07:11:36;;;;;;;13.83;4.13;;;;;;;;;;6219237;23;20012;-45
2023/08/24 07:14:04;;;;;;;10.43;3.95;;;;;;;;;;6207895;23;20066;-42
2023/08/24 07:16:33;;;;;;;10.85;4.40;;;;;;;;;;6209472;23;20024;-43
2023/08/24 07:19:02;;;;;;;11.23;4.70;;;;;;;;;;6217974;23;20016;-42
2023/08/24 07:21:30;;;;;;;9.95;4.38;;;;;;;;;;6210770;22;20530;-42
2023/08/24 07:23:58;;;;;;;10.33;4.17;;;;;;;;;;6209610;23;20070;-42
2023/08/24 07:26:26;;;;;;;10.77;4.38;;;;;;;;;;6209351;23;20111;-43
2023/08/24 07:28:56;;;;;;;12.63;4.53;;;;;;;;;;6221546;23;20016;-43
2023/08/24 07:31:23;;;;;;;9.95;4.60;;;;;;;;;;6206821;23;20023;-42
2023/08/24 07:33:51;;;;;;;11.25;4.45;;;;;;;;;;6213740;22;20100;-44
2023/08/24 07:36:19;;;;;;;13.23;4.70;;;;;;;;;;6216966;23;20503;-43
2023/08/24 07:38:48;;;;;;;13.68;4.57;;;;;;;;;;6205921;23;20452;-43
2023/08/24 07:41:18;;;;;;;13.75;4.75;;;;;;;;;;6208807;23;20017;-42
2023/08/24 07:43:45;;;;;;;11.45;4.18;;;;;;;;;;6210611;23;20091;-43
2023/08/24 07:46:14;;;;;;;9.60;4.63;;;;;;;;;;6219687;23;20017;-43
2023/08/24 07:48:43;;;;;;;13.27;4.60;;;;;;;;;;6211987;22;20043;-45
2023/08/24 07:51:11;;;;;;;14.23;5.05;;;;;;;;;;6215819;22;20069;-44
2023/08/24 07:53:39;;;;;;;9.90;4.32;;;;;;;;;;6217145;22;20101;-44
2023/08/24 07:56:07;;;;;;;12.95;4.70;;;;;;;;;;6212690;23;20012;-45
2023/08/24 07:58:35;;;;;;;10.23;4.15;;;;;;;;;;6214553;23;20020;-44
2023/08/24 08:01:02;;;;;;;13.13;4.60;;;;;;;;;;6217900;23;20461;-45
2023/08/24 08:03:35;;;;;;;11.20;5.05;;;;;;;;;;6214386;23;20020;-44
2023/08/24 08:06:04;;;;;;;10.95;4.72;;;;;;;;;;6221290;23;20026;-45
2023/08/24 08:08:32;;;;;;;13.07;5.30;;;;;;;;;;6211136;23;20016;-42
2023/08/24 08:11:00;;;;;;;13.40;5.18;;;;;;;;;;6214136;23;20347;-46
2023/08/24 08:13:29;;;;;;;13.73;5.07;;;;;;;;;;6220456;23;20091;-43
2023/08/24 08:16:03;;;;;;;10.82;4.78;;;;;;;;;;6213919;23;20820;-47
2023/08/24 08:18:31;;;;;;;15.27;5.45;;;;;;;;;;6209126;23;20055;-43
2023/08/24 08:21:01;;;;;;;16.65;6.05;;;;;;;;;;6215213;23;20012;-45
2023/08/24 08:23:29;;;;;;;13.00;6.00;;;;;;;;;;6213265;23;20016;-43
2023/08/24 08:25:58;;;;;;;19.10;6.17;;;;;;;;;;6208469;22;20016;-45
2023/08/24 08:28:26;;;;;;;17.08;6.47;;;;;;;;;;6212443;23;20008;-45
2023/08/24 08:30:54;;;;;;;16.42;5.63;;;;;;;;;;6198661;23;20043;-43
2023/08/24 08:33:23;;;;;;;13.85;5.43;;;;;;;;;;6213030;23;20016;-44
2023/08/24 08:35:51;;;;;;;15.10;6.13;;;;;;;;;;6216977;23;20024;-42
2023/08/24 08:38:21;;;;;;;15.57;5.17;;;;;;;;;;6202389;23;20012;-43
2023/08/24 08:41:07;;;;;;;15.73;6.05;;;;;;;;;;6187676;23;20026;-47
2023/08/24 08:43:35;;;;;;;14.73;5.30;;;;;;;;;;6195901;23;20454;-47
2023/08/24 08:46:03;;;;;;;16.73;5.90;;;;;;;;;;6194676;23;20019;-45
2023/08/24 08:48:31;;;;;;;15.80;6.38;;;;;;;;;;6197679;23;20023;-45
2023/08/24 08:51:02;;;;;;;14.27;5.80;;;;;;;;;;6195450;23;20401;-45
2023/08/24 08:53:33;;;;;;;16.38;5.80;;;;;;;;;;6204497;23;20025;-44
2023/08/24 08:56:03;;;;;;;12.82;5.43;;;;;;;;;;6196665;23;20012;-45
2023/08/24 08:58:33;;;;;;;11.85;5.25;;;;;;;;;;6206970;23;20086;-45
2023/08/24 09:01:03;;;;;;;12.07;4.97;;;;;;;;;;6196283;23;20016;-48
2023/08/24 09:03:32;;;;;;;14.77;5.03;;;;;;;;;;6199604;23;20048;-46
2023/08/24 09:06:01;;;;;;;14.35;4.50;;;;;;;;;;6199537;23;20035;-48
2023/08/24 09:08:29;;;;;;;13.95;5.38;;;;;;;;;;6192203;23;20592;-46
2023/08/24 09:10:59;;;;;;;12.10;5.70;;;;;;;;;;6199599;23;20030;-42
2023/08/24 09:13:27;;;;;;;13.80;5.32;;;;;;;;;;6174934;23;20016;-46
2023/08/24 09:15:54;;;;;;;13.77;5.03;;;;;;;;;;6204809;23;20049;-48
2023/08/24 09:18:22;;;;;;;12.80;4.88;;;;;;;;;;6208399;23;20016;-44
2023/08/24 09:20:50;;;;;;;11.43;4.90;;;;;;;;;;6199124;23;20456;-46
2023/08/24 09:23:20;;;;;;;15.80;5.45;;;;;;;;;;6203715;23;20020;-43
2023/08/24 09:25:49;;;;;;;13.80;3.95;;;;;;;;;;6204050;23;20573;-45
2023/08/24 09:28:23;;;;;;;13.70;4.67;;;;;;;;;;6209440;22;20023;-47
2023/08/24 09:30:53;;;;;;;16.05;4.55;;;;;;;;;;6193591;23;20023;-46
2023/08/24 09:33:25;;;;;;;14.18;4.32;;;;;;;;;;6207883;22;20038;-44
2023/08/24 09:35:53;;;;;;;15.00;5.18;;;;;;;;;;6213166;23;20131;-45
2023/08/24 09:38:22;;;;;;;10.70;4.25;;;;;;;;;;6194463;23;21034;-47
2023/08/24 09:40:51;;;;;;;11.33;3.50;;;;;;;;;;6194145;23;20192;-48
2023/08/24 09:43:21;;;;;;;7.53;3.38;;;;;;;;;;6208141;23;20443;-49
2023/08/24 09:45:49;;;;;;;10.43;3.10;;;;;;;;;;6198453;23;20317;-45
2023/08/24 09:48:17;;;;;;;8.60;3.10;;;;;;;;;;6213267;23;20019;-45
2023/08/24 09:50:45;;;;;;;10.63;3.42;;;;;;;;;;6183098;23;20061;-45
2023/08/24 09:53:16;;;;;;;7.90;2.80;;;;;;;;;;6204739;23;20023;-47
2023/08/24 09:55:45;;;;;;;12.90;2.95;;;;;;;;;;6201978;23;20268;-45
2023/08/24 09:58:12;;;;;;;8.98;2.70;;;;;;;;;;6209886;23;20091;-46
2023/08/24 10:00:42;;;;;;;8.55;3.08;;;;;;;;;;6191153;23;20015;-44
2023/08/24 10:03:13;;;;;;;9.18;3.35;;;;;;;;;;6213123;23;20427;-44
2023/08/24 10:05:42;;;;;;;7.90;2.50;;;;;;;;;;6182895;23;20094;-46
2023/08/24 10:08:27;;;;;;;7.75;2.45;;;;;;;;;;6199961;23;20016;-47
2023/08/24 10:10:58;;;;;;;12.50;2.70;;;;;;;;;;6200632;23;20028;-49
2023/08/24 10:13:31;;;;;;;6.63;2.45;;;;;;;;;;6201747;23;20480;-46
2023/08/24 10:16:22;;;;;;;7.13;2.33;;;;;;;;;;6212988;23;20021;-45
2023/08/24 10:18:51;;;;;;;6.67;2.00;;;;;;;;;;6209862;23;20020;-44
2023/08/24 10:21:19;;;;;;;9.30;2.67;;;;;;;;;;6188930;23;20026;-44
2023/08/24 10:23:47;;;;;;;7.75;2.22;;;;;;;;;;6198287;23;20020;-45
2023/08/24 10:26:17;;;;;;;8.82;2.83;;;;;;;;;;6201993;23;20083;-45
2023/08/24 10:28:45;;;;;;;10.15;2.40;;;;;;;;;;6193461;23;20029;-47
2023/08/24 10:31:13;;;;;;;7.37;2.63;;;;;;;;;;6199994;23;20035;-44
2023/08/24 10:33:44;;;;;;;6.13;2.10;;;;;;;;;;6202314;23;20019;-45
2023/08/24 10:36:13;;;;;;;6.80;2.40;;;;;;;;;;6210664;23;20012;-45
2023/08/24 10:38:42;;;;;;;6.80;1.98;;;;;;;;;;6203153;23;20020;-47
2023/08/24 10:41:12;;;;;;;5.95;1.90;;;;;;;;;;6194949;22;20050;-47
2023/08/24 10:43:49;;;;;;;6.07;1.70;;;;;;;;;;6201360;23;20012;-46
2023/08/24 10:46:17;;;;;;;7.00;1.95;;;;;;;;;;6203507;23;20070;-45
2023/08/24 10:49:00;;;;;;;5.97;1.70;;;;;;;;;;6199638;23;20047;-46
2023/08/24 10:51:31;;;;;;;7.10;2.05;;;;;;;;;;6193495;23;20027;-43
2023/08/24 10:54:00;;;;;;;8.20;2.17;;;;;;;;;;6194303;23;20733;-46
2023/08/24 10:56:31;;;;;;;6.90;2.23;;;;;;;;;;6196647;23;20027;-46
2023/08/24 10:59:10;;;;;;;5.88;2.00;;;;;;;;;;6203300;23;20077;-47
2023/08/24 11:01:39;;;;;;;5.50;1.92;;;;;;;;;;6192906;23;20020;-45
2023/08/24 11:04:08;;;;;;;6.72;1.50;;;;;;;;;;6202868;23;20020;-48
2023/08/24 11:06:51;;;;;;;10.35;1.92;;;;;;;;;;6199261;23;20016;-46
2023/08/24 11:09:19;;;;;;;5.47;1.83;;;;;;;;;;6200158;23;20016;-44
2023/08/24 11:11:56;;;;;;;5.63;1.50;;;;;;;;;;6196976;23;20111;-45
2023/08/24 11:14:26;;;;;;;7.57;1.77;;;;;;;;;;6204950;23;20070;-47
2023/08/24 11:16:57;;;;;;;5.85;1.80;;;;;;;;;;6202008;23;20078;-46
2023/08/24 11:19:30;;;;;;;5.40;1.50;;;;;;;;;;6190830;22;20027;-43
2023/08/24 11:21:59;;;;;;;5.33;1.97;;;;;;;;;;6202542;23;20036;-44
2023/08/24 11:24:27;;;;;;;6.85;2.17;;;;;;;;;;6199570;23;20404;-44
2023/08/24 11:27:00;;;;;;;6.85;2.03;;;;;;;;;;6207754;23;20027;-48
2023/08/24 11:29:28;;;;;;;6.78;1.60;;;;;;;;;;6205775;23;20470;-42
2023/08/24 11:31:58;;;;;;;5.40;1.58;;;;;;;;;;6198929;23;20041;-45
2023/08/24 11:34:29;;;;;;;6.97;1.87;;;;;;;;;;6212846;23;20031;-46
2023/08/24 11:36:57;;;;;;;6.28;1.40;;;;;;;;;;6188723;23;20017;-44
2023/08/24 11:39:25;;;;;;;5.13;1.80;;;;;;;;;;6200501;23;20024;-47
2023/08/24 11:42:00;;;;;;;6.15;2.08;;;;;;;;;;6198624;23;20016;-45
2023/08/24 11:44:28;;;;;;;9.63;1.80;;;;;;;;;;6166572;23;20035;-44
2023/08/24 11:46:57;;;;;;;6.27;1.87;;;;;;;;;;6190517;23;20095;-45
2023/08/24 11:49:25;;;;;;;4.63;1.50;;;;;;;;;;6190442;23;20024;-44
2023/08/24 11:51:56;;;;;;;5.80;1.52;;;;;;;;;;6202205;23;20020;-48
2023/08/24 11:54:24;;;;;;;5.68;1.42;;;;;;;;;;6197366;23;20829;-47
2023/08/24 11:56:52;;;;;;;7.35;1.70;;;;;;;;;;6200752;23;20016;-44
2023/08/24 11:59:20;;;;;;;5.83;1.30;;;;;;;;;;6189939;23;20083;-43
2023/08/24 12:01:50;;;;;;;5.38;1.60;;;;;;;;;;6189200;23;20362;-47
2023/08/24 12:04:17;;;;;;;5.70;1.77;;;;;;;;;;6205175;23;20028;-46
2023/08/24 12:06:45;;;;;;;7.15;2.13;;;;;;;;;;6194964;23;20074;-49
2023/08/24 12:09:15;;;;;;;6.57;2.05;;;;;;;;;;6203253;23;20019;-47
2023/08/24 12:11:42;;;;;;;6.17;1.87;;;;;;;;;;6187189;22;20020;-45
2023/08/24 12:14:17;;;;;;;5.72;1.70;;;;;;;;;;6196048;23;20382;-46
2023/08/24 12:16:45;;;;;;;5.93;2.15;;;;;;;;;;6197333;23;20427;-44
2023/08/24 12:19:13;;;;;;;5.57;1.83;;;;;;;;;;6181523;23;20459;-44
2023/08/24 12:21:44;;;;;;;7.68;1.67;;;;;;;;;;6175966;23;20038;-44
2023/08/24 12:24:14;;;;;;;6.13;2.10;;;;;;;;;;6171460;23;20020;-44
2023/08/24 12:26:43;;;;;;;6.22;1.60;;;;;;;;;;6198675;23;20443;-43
2023/08/24 12:29:11;;;;;;;6.50;1.60;;;;;;;;;;6200597;23;20016;-45
2023/08/24 12:31:43;;;;;;;6.82;1.50;;;;;;;;;;6187508;23;20119;-44
2023/08/24 12:34:11;;;;;;;4.45;1.45;;;;;;;;;;6203193;23;20438;-45
2023/08/24 12:36:41;;;;;;;5.03;1.60;;;;;;;;;;6192081;23;20039;-45
2023/08/24 12:39:10;;;;;;;4.70;1.30;;;;;;;;;;6205620;23;20012;-45
2023/08/24 12:41:38;;;;;;;4.78;1.30;;;;;;;;;;6180809;23;20523;-44
2023/08/24 12:44:07;;;;;;;6.15;1.60;;;;;;;;;;6204843;23;20119;-45
2023/08/24 12:46:38;;;;;;;4.00;0.93;;;;;;;;;;6193058;23;20016;-44
2023/08/24 12:49:06;;;;;;;5.20;1.50;;;;;;;;;;6196757;23;20031;-46
2023/08/24 12:51:33;;;;;;;4.57;1.45;;;;;;;;;;6179006;23;20049;-44
2023/08/24 12:54:01;;;;;;;6.05;1.70;;;;;;;;;;6193269;23;20016;-45
2023/08/24 12:56:29;;;;;;;3.88;1.15;;;;;;;;;;6205441;23;20083;-46
2023/08/24 12:58:57;;;;;;;5.50;1.38;;;;;;;;;;6195728;22;20297;-45
2023/08/24 13:01:26;;;;;;;5.37;1.50;;;;;;;;;;6185786;23;20016;-45
2023/08/24 13:03:54;;;;;;;4.55;1.35;;;;;;;;;;6197277;23;20055;-43
2023/08/24 13:06:21;;;;;;;4.07;1.40;;;;;;;;;;6202327;23;20079;-44
2023/08/24 13:08:51;;;;;;;6.88;1.35;;;;;;;;;;6194382;23;20044;-48
2023/08/24 13:11:19;;;;;;;4.68;1.50;;;;;;;;;;6189601;23;20059;-45
2023/08/24 13:13:47;;;;;;;6.33;1.60;;;;;;;;;;6194195;23;20386;-47
2023/08/24 13:16:16;;;;;;;5.38;1.38;;;;;;;;;;6205865;23;20065;-43
2023/08/24 13:18:45;;;;;;;4.35;1.42;;;;;;;;;;6198359;23;20460;-46
2023/08/24 13:21:12;;;;;;;4.43;1.20;;;;;;;;;;6192101;23;20012;-45
2023/08/24 13:23:43;;;;;;;6.30;1.35;;;;;;;;;;6192462;23;20061;-46
2023/08/24 13:26:17;;;;;;;8.60;1.20;;;;;;;;;;6196543;23;20062;-44
2023/08/24 13:28:45;;;;;;;4.53;1.50;;;;;;;;;;6198375;23;20020;-48
2023/08/24 13:31:17;;;;;;;5.80;1.30;;;;;;;;;;6184273;23;20020;-45
2023/08/24 13:33:46;;;;;;;5.55;1.50;;;;;;;;;;6198180;22;20038;-45
2023/08/24 13:36:14;;;;;;;6.60;1.45;;;;;;;;;;6203576;23;20023;-46
2023/08/24 13:38:42;;;;;;;4.57;1.23;;;;;;;;;;6194146;23;20012;-49
2023/08/24 13:41:10;;;;;;;5.88;1.50;;;;;;;;;;6186400;23;20027;-47
2023/08/24 13:43:39;;;;;;;5.93;1.30;;;;;;;;;;6187896;23;20110;-47
2023/08/24 13:46:07;;;;;;;4.10;1.33;;;;;;;;;;6198103;23;20043;-45
2023/08/24 13:48:35;;;;;;;4.07;1.50;;;;;;;;;;6198412;23;20231;-49
2023/08/24 13:51:04;;;;;;;3.60;1.07;;;;;;;;;;6186494;23;20095;-45
2023/08/24 13:53:32;;;;;;;5.30;1.40;;;;;;;;;;6201413;23;20020;-44
2023/08/24 13:55:59;;;;;;;4.18;1.63;;;;;;;;;;6194425;23;20019;-46
2023/08/24 13:58:27;;;;;;;4.40;1.30;;;;;;;;;;6206297;23;20027;-43
2023/08/24 14:00:55;;;;;;;4.20;1.27;;;;;;;;;;6176439;23;20031;-46
2023/08/24 14:03:23;;;;;;;4.53;1.47;;;;;;;;;;6199952;23;20016;-44
2023/08/24 14:05:55;;;;;;;5.20;1.40;;;;;;;;;;6196110;23;20019;-48
2023/08/24 14:08:24;;;;;;;4.90;1.48;;;;;;;;;;6201077;23;20497;-43
2023/08/24 14:10:54;;;;;;;5.57;1.45;;;;;;;;;;6192182;22;20474;-46
2023/08/24 14:13:21;;;;;;;5.03;1.60;;;;;;;;;;6192332;23;20020;-44
2023/08/24 14:15:50;;;;;;;4.77;1.70;;;;;;;;;;6202552;23;20277;-47
2023/08/24 14:18:18;;;;;;;6.32;2.00;;;;;;;;;;6195668;23;20019;-45
2023/08/24 14:20:45;;;;;;;6.93;1.63;;;;;;;;;;6193714;23;20016;-47
2023/08/24 14:23:13;;;;;;;6.25;1.65;;;;;;;;;;6194945;23;20020;-46
2023/08/24 14:25:42;;;;;;;6.65;1.83;;;;;;;;;;6204578;23;20113;-43
2023/08/24 14:28:10;;;;;;;5.87;1.80;;;;;;;;;;6196180;23;20039;-45
2023/08/24 14:30:39;;;;;;;4.85;1.80;;;;;;;;;;6191520;23;20030;-45
2023/08/24 14:33:07;;;;;;;4.68;1.70;;;;;;;;;;6194739;22;20459;-45
2023/08/24 14:35:35;;;;;;;5.63;1.40;;;;;;;;;;6198443;23;20016;-43
2023/08/24 14:38:02;;;;;;;6.80;1.88;;;;;;;;;;6189027;23;20016;-45
2023/08/24 14:40:31;;;;;;;4.10;1.60;;;;;;;;;;6184923;23;20016;-46
2023/08/24 14:43:00;;;;;;;3.53;1.10;;;;;;;;;;6203486;23;20035;-46
2023/08/24 14:45:28;;;;;;;4.47;1.60;;;;;;;;;;6196355;23;20443;-43
2023/08/24 14:47:55;;;;;;;4.82;1.30;;;;;;;;;;6198021;23;20020;-46